Time;durP1;ratioP1;P1;durP2;ratioP2;P2;SDS_P1;SDS_P2;PMS_P1;PMS_P2;Temp;Humidity;BMP_temperature;BMP_pressure;BME280_temperature;BME280_humidity;BME280_pressure;Samples;Min_cycle;Max_cycle;Signal;HPM_P1;HPM_P2
2021/12/20 00:00:52;;;;;;;2.35;1.60;;;;;;;-3.92;75.20;96553.22;4864824;29;20048;-73
2021/12/20 00:03:17;;;;;;;2.38;2.05;;;;;;;-3.95;74.93;96558.63;4865168;29;20056;-75
2021/12/20 00:05:42;;;;;;;1.92;1.67;;;;;;;-3.93;75.06;96548.13;4865203;29;20134;-73
2021/12/20 00:08:07;;;;;;;2.58;1.63;;;;;;;-3.94;74.61;96539.47;4865094;29;20096;-75
2021/12/20 00:10:32;;;;;;;3.67;2.30;;;;;;;-3.95;75.19;96558.63;4864602;29;20048;-73
2021/12/20 00:12:57;;;;;;;2.30;1.92;;;;;;;-3.93;74.85;96553.31;4848673;29;20471;-75
2021/12/20 00:15:22;;;;;;;2.67;2.03;;;;;;;-3.95;75.39;96563.03;4865336;29;20463;-75
2021/12/20 00:17:47;;;;;;;2.13;1.83;;;;;;;-3.97;75.20;96567.47;4847654;29;20037;-76
2021/12/20 00:20:12;;;;;;;4.20;2.28;;;;;;;-4.00;74.80;96568.50;4831616;29;20100;-72
2021/12/20 00:22:37;;;;;;;5.82;2.40;;;;;;;-3.99;74.90;96569.34;4831889;29;20056;-73
2021/12/20 00:25:04;;;;;;;3.58;2.58;;;;;;;-3.96;75.33;96577.78;4864564;29;20048;-74
2021/12/20 00:27:29;;;;;;;2.75;2.10;;;;;;;-3.92;75.10;96581.84;4847660;29;20048;-72
2021/12/20 00:29:54;;;;;;;3.95;2.50;;;;;;;-3.94;75.29;96583.72;4846267;29;20064;-74
2021/12/20 00:32:18;;;;;;;3.15;2.10;;;;;;;-3.98;74.68;96577.06;4863613;29;20131;-73
2021/12/20 00:34:45;;;;;;;2.53;2.22;;;;;;;-4.04;74.87;96575.66;4863734;29;20051;-72
2021/12/20 00:42:36;;;;;;;2.03;1.83;;;;;;;-4.15;74.84;96591.09;4863129;29;20127;-73
2021/12/20 00:45:01;;;;;;;1.88;1.42;;;;;;;-4.14;75.19;96591.94;4863109;29;20208;-73
2021/12/20 00:47:27;;;;;;;1.92;1.70;;;;;;;-4.20;75.11;96598.34;4845945;29;20870;-71
2021/12/20 00:49:52;;;;;;;3.70;2.13;;;;;;;-4.22;75.19;96609.78;4863047;29;20559;-73
2021/12/20 00:52:17;;;;;;;2.20;2.00;;;;;;;-4.30;75.04;96597.25;4862612;29;20123;-72
2021/12/20 00:54:41;;;;;;;6.00;1.65;;;;;;;-4.32;75.16;96614.69;4863026;29;20059;-73
2021/12/20 00:57:06;;;;;;;2.88;1.10;;;;;;;-4.26;75.00;96603.91;4846501;29;20471;-72
2021/12/20 00:59:31;;;;;;;1.98;1.75;;;;;;;-4.31;74.93;96605.13;4863987;29;20044;-73
2021/12/20 01:01:56;;;;;;;1.15;0.95;;;;;;;-4.38;75.16;96605.50;4845788;29;20047;-73
2021/12/20 01:04:20;;;;;;;3.58;2.08;;;;;;;-4.39;75.25;96623.78;4862416;29;20048;-72
2021/12/20 01:06:45;;;;;;;3.60;2.13;;;;;;;-4.41;74.80;96623.06;4846096;29;20041;-74
2021/12/20 01:09:10;;;;;;;2.35;1.50;;;;;;;-4.47;75.25;96626.00;4845500;29;20056;-70
2021/12/20 01:11:39;;;;;;;1.80;1.50;;;;;;;-4.44;75.19;96638.84;4845348;29;20044;-70
2021/12/20 01:14:04;;;;;;;2.00;1.60;;;;;;;-4.50;75.31;96629.63;4862684;29;20057;-73
2021/12/20 01:16:31;;;;;;;1.60;1.38;;;;;;;-4.46;75.65;96638.09;4862829;29;20048;-73
2021/12/20 01:18:58;;;;;;;3.67;2.03;;;;;;;-4.45;75.04;96643.19;4862235;29;20079;-73
2021/12/20 01:21:23;;;;;;;1.83;1.55;;;;;;;-4.49;75.29;96646.06;4845312;29;20046;-73
2021/12/20 01:23:47;;;;;;;3.28;1.80;;;;;;;-4.53;75.45;96642.84;4861735;29;20139;-73
2021/12/20 01:26:12;;;;;;;2.60;1.75;;;;;;;-4.56;75.07;96650.81;4861884;29;20579;-73
2021/12/20 01:28:39;;;;;;;1.55;1.23;;;;;;;-4.56;75.48;96648.19;4861721;29;20053;-73
2021/12/20 01:31:04;;;;;;;3.20;1.65;;;;;;;-4.53;75.29;96645.44;4861548;29;20040;-65
2021/12/20 01:33:29;;;;;;;1.70;1.33;;;;;;;-4.58;75.08;96651.81;4829314;29;20059;-65
2021/12/20 01:35:56;;;;;;;6.47;1.80;;;;;;;-4.55;74.78;96659.44;4858858;29;20515;-65
2021/12/20 01:38:21;;;;;;;2.08;1.45;;;;;;;-4.58;75.34;96659.59;4819435;29;20040;-68
2021/12/20 01:40:49;;;;;;;2.40;1.85;;;;;;;-4.58;75.16;96659.59;4833147;29;20040;-66
2021/12/20 01:43:16;;;;;;;1.95;1.75;;;;;;;-4.57;75.24;96663.88;4833920;29;20051;-67
2021/12/20 01:45:40;;;;;;;2.00;1.30;;;;;;;-4.56;75.59;96668.16;4851798;29;20065;-64
2021/12/20 01:48:12;;;;;;;4.35;1.45;;;;;;;-4.57;74.96;96651.72;4850094;29;20041;-64
2021/12/20 01:51:29;;;;;;;1.50;1.38;;;;;;;-4.54;75.01;96671.50;4833763;29;20100;-66
2021/12/20 01:53:40;;;;;;;2.15;1.95;;;;;;;-4.60;75.24;96666.66;4834380;29;20053;-66
2021/12/20 01:56:06;;;;;;;1.38;1.15;;;;;;;-4.63;75.38;96683.28;4849771;29;20045;-65
2021/12/20 01:58:31;;;;;;;2.22;1.58;;;;;;;-4.61;75.15;96686.63;4834415;29;20041;-65
2021/12/20 02:01:03;;;;;;;4.55;1.60;;;;;;;-4.62;74.81;96678.91;4851261;29;20105;-65
2021/12/20 02:03:31;;;;;;;1.67;1.40;;;;;;;-4.71;74.92;96679.44;4817818;29;20047;-66
2021/12/20 02:05:58;;;;;;;2.13;1.10;;;;;;;-4.65;74.87;96694.69;4844222;29;20530;-63
2021/12/20 02:08:26;;;;;;;5.72;1.35;;;;;;;-4.80;74.92;96702.44;4861036;29;20108;-65
2021/12/20 02:10:56;;;;;;;4.57;1.27;;;;;;;-4.81;75.21;96697.31;4860914;29;20135;-66
2021/12/20 02:13:24;;;;;;;1.63;1.23;;;;;;;-4.74;74.48;96698.66;4860914;29;20100;-65
2021/12/20 02:15:49;;;;;;;3.35;1.75;;;;;;;-4.82;74.86;96704.28;4860974;29;20134;-64
2021/12/20 02:18:13;;;;;;;1.85;0.88;;;;;;;-4.91;74.50;96702.22;4844170;29;20139;-64
2021/12/20 02:20:38;;;;;;;1.33;1.20;;;;;;;-4.96;74.97;96712.03;4844224;29;20048;-65
2021/12/20 02:23:05;;;;;;;3.00;2.10;;;;;;;-4.93;74.67;96713.63;4860890;29;20044;-68
2021/12/20 02:25:31;;;;;;;1.15;1.02;;;;;;;-4.98;74.55;96715.66;4861150;29;20056;-66
2021/12/20 02:28:02;;;;;;;1.58;1.13;;;;;;;-5.02;75.02;96730.56;4861468;29;20041;-66
2021/12/20 02:38:26;;;;;;;0.77;0.70;;;;;;;-5.17;75.21;96740.03;4862349;29;20052;-65
2021/12/20 02:41:22;;;;;;;1.00;0.95;;;;;;;-5.07;75.24;96749.91;4860822;29;20159;-65
2021/12/20 02:43:57;;;;;;;2.40;1.20;;;;;;;-5.12;74.96;96758.81;4843584;29;20075;-65
2021/12/20 02:48:56;;;;;;;2.80;1.50;;;;;;;-5.22;74.66;96762.84;4844018;29;20096;-65
2021/12/20 02:51:24;;;;;;;0.93;0.77;;;;;;;-5.27;74.80;96766.59;4844192;29;20076;-65
2021/12/20 02:53:48;;;;;;;1.00;0.98;;;;;;;-5.27;74.96;96766.59;4844378;29;20136;-65
2021/12/20 02:56:13;;;;;;;2.00;1.60;;;;;;;-5.27;75.32;96769.19;4860613;29;20048;-63
2021/12/20 02:58:40;;;;;;;3.90;1.60;;;;;;;-5.29;75.00;96776.22;4860990;29;20049;-67
2021/12/20 03:01:04;;;;;;;2.90;1.50;;;;;;;-5.31;75.06;96770.28;4860815;29;20056;-67
2021/12/20 03:03:29;;;;;;;2.92;1.38;;;;;;;-5.29;75.07;96768.44;4861524;29;20048;-68
2021/12/20 03:05:54;;;;;;;1.95;1.27;;;;;;;-5.36;74.76;96780.06;4861319;29;20079;-74
2021/12/20 03:08:23;;;;;;;1.67;0.88;;;;;;;-5.40;74.94;96786.34;4844705;29;20064;-69
2021/12/20 03:10:48;;;;;;;3.78;1.27;;;;;;;-5.44;74.62;96790.88;4861940;29;20457;-67
2021/12/20 03:13:13;;;;;;;1.73;1.05;;;;;;;-5.43;75.11;96795.16;4845272;29;20056;-72
2021/12/20 03:15:38;;;;;;;2.45;1.60;;;;;;;-5.41;75.18;96792.44;4861662;29;20052;-70
2021/12/20 03:18:03;;;;;;;1.10;1.00;;;;;;;-5.40;74.89;96792.38;4860795;29;20044;-69
2021/12/20 03:20:28;;;;;;;1.88;1.63;;;;;;;-5.33;75.58;96793.75;4843360;29;20055;-63
2021/12/20 03:22:52;;;;;;;1.50;0.88;;;;;;;-5.39;75.08;96808.78;4860413;29;20131;-65
2021/12/20 03:25:18;;;;;;;5.30;1.83;;;;;;;-5.46;75.05;96808.28;4860486;29;20789;-64
2021/12/20 03:27:42;;;;;;;2.72;1.50;;;;;;;-5.50;75.34;96814.53;4843433;29;20065;-64
2021/12/20 03:30:10;;;;;;;2.03;1.25;;;;;;;-5.43;75.08;96805.53;4860022;29;20048;-65
2021/12/20 03:32:35;;;;;;;1.58;1.23;;;;;;;-5.50;74.71;96825.78;4843447;29;20040;-63
2021/12/20 03:35:00;;;;;;;2.85;1.50;;;;;;;-5.52;74.47;96826.75;4860044;29;20053;-64
2021/12/20 03:37:25;;;;;;;2.88;1.60;;;;;;;-5.57;74.61;96824.44;4859950;29;20091;-64
2021/12/20 03:39:49;;;;;;;1.98;1.13;;;;;;;-5.58;74.65;96843.50;4859890;29;20088;-64
2021/12/20 03:42:14;;;;;;;2.88;1.35;;;;;;;-5.62;74.71;96831.59;4827899;29;20044;-64
2021/12/20 03:44:44;;;;;;;3.55;2.17;;;;;;;-5.66;74.45;96834.44;4860128;29;20057;-65
2021/12/20 03:47:08;;;;;;;1.55;1.45;;;;;;;-5.75;74.66;96848.72;4859945;29;20395;-64
2021/12/20 03:49:33;;;;;;;1.83;1.17;;;;;;;-5.71;74.34;96837.28;4843942;29;20423;-65
2021/12/20 03:51:58;;;;;;;4.22;2.63;;;;;;;-5.74;74.80;96860.78;4860497;29;20127;-65
2021/12/20 03:54:22;;;;;;;2.90;1.42;;;;;;;-5.68;74.51;96838.88;4860579;29;20056;-65
2021/12/20 03:56:47;;;;;;;5.53;1.77;;;;;;;-5.74;74.33;96853.00;4861094;29;20051;-66
2021/12/20 03:59:12;;;;;;;2.65;1.80;;;;;;;-5.75;74.04;96855.66;4861294;29;20048;-66
2021/12/20 04:01:37;;;;;;;3.47;1.75;;;;;;;-5.85;74.53;96861.31;4860889;29;20052;-67
2021/12/20 04:04:02;;;;;;;3.17;2.15;;;;;;;-5.87;74.12;96862.34;4861783;29;20048;-70
2021/12/20 04:06:27;;;;;;;4.55;2.15;;;;;;;-5.92;74.48;96872.13;4846606;29;20085;-69
2021/12/20 04:08:52;;;;;;;4.75;2.33;;;;;;;-5.89;74.63;96870.22;4864361;29;20148;-69
2021/12/20 04:11:16;;;;;;;2.58;1.35;;;;;;;-5.88;74.58;96878.84;4865043;29;20052;-68
2021/12/20 04:13:41;;;;;;;1.75;1.02;;;;;;;-5.86;74.83;96874.38;4847796;29;20059;-69
2021/12/20 04:16:06;;;;;;;1.98;1.45;;;;;;;-5.87;74.01;96881.31;4864448;29;20075;-66
2021/12/20 04:18:32;;;;;;;2.85;2.00;;;;;;;-5.94;74.08;96892.94;4832093;29;20044;-68
2021/12/20 04:20:57;;;;;;;5.68;2.13;;;;;;;-6.00;74.54;96892.44;4832299;29;20687;-67
2021/12/20 04:23:21;;;;;;;1.95;0.88;;;;;;;-6.01;74.54;96893.34;4864149;29;20532;-66
2021/12/20 04:25:47;;;;;;;2.78;1.80;;;;;;;-6.00;74.67;96900.22;4847033;29;20442;-63
2021/12/20 04:28:12;;;;;;;1.48;1.33;;;;;;;-6.02;75.13;96904.63;4846661;29;20075;-64
2021/12/20 04:30:36;;;;;;;2.30;1.20;;;;;;;-5.97;74.85;96897.44;4863342;29;20048;-65
2021/12/20 11:16:27;;;;;;;5.60;2.55;;;;;;;-6.86;70.21;97473.25;5861427;23;20415;31
2021/12/20 11:19:07;;;;;;;2.90;1.95;;;;;;;-6.82;69.34;97484.34;4862771;29;20160;-66
2021/12/20 11:21:59;;;;;;;5.75;1.75;;;;;;;-6.84;70.33;97483.56;4864842;29;20144;-66
2021/12/20 11:24:32;;;;;;;2.47;1.83;;;;;;;-6.82;70.33;97492.97;4859565;29;20404;-67
2021/12/20 11:26:59;;;;;;;4.13;2.35;;;;;;;-6.88;70.01;97493.16;4864483;29;20063;-66
2021/12/20 11:29:25;;;;;;;2.08;1.75;;;;;;;-6.90;69.86;97504.50;4864535;29;20052;-66
2021/12/20 11:31:54;;;;;;;7.40;2.40;;;;;;;-6.82;71.04;97498.16;4864505;29;20048;-66
2021/12/20 11:34:21;;;;;;;3.90;2.47;;;;;;;-6.78;70.35;97506.66;4864307;29;20159;-65
2021/12/20 11:36:46;;;;;;;7.45;2.10;;;;;;;-6.76;70.49;97512.59;4847835;29;20510;-64
2021/12/20 11:39:12;;;;;;;3.00;2.25;;;;;;;-6.74;69.81;97514.25;4864449;29;20048;-66
2021/12/20 11:41:37;;;;;;;3.40;1.48;;;;;;;-6.85;69.99;97516.38;4864581;29;20537;-64
2021/12/20 11:44:05;;;;;;;3.83;1.98;;;;;;;-6.92;69.77;97527.03;4847203;29;20047;-64
2021/12/20 11:46:46;;;;;;;3.22;1.77;;;;;;;-7.03;69.68;97532.59;4850018;29;20930;-65
2021/12/20 11:49:17;;;;;;;3.42;2.13;;;;;;;-7.01;70.21;97513.53;4845690;29;20044;-64
2021/12/20 11:52:22;;;;;;;4.35;2.38;;;;;;;-7.01;70.32;97523.88;4845638;29;20056;-66
2021/12/20 11:54:52;;;;;;;4.55;2.33;;;;;;;-7.16;69.78;97534.75;4755605;29;20054;-67
2021/12/20 11:57:40;;;;;;;3.13;1.52;;;;;;;-7.02;69.48;97550.66;4770668;29;20538;-66
2021/12/20 12:00:27;;;;;;;2.97;2.13;;;;;;;-7.17;69.04;97551.19;4755288;29;20530;-64
2021/12/20 12:03:15;;;;;;;2.85;1.77;;;;;;;-7.25;70.03;97540.25;4755322;29;20054;-66
2021/12/20 12:05:57;;;;;;;3.90;2.42;;;;;;;-7.35;69.74;97536.28;4770894;29;20062;-66
2021/12/20 12:08:26;;;;;;;5.38;2.80;;;;;;;-7.46;70.04;97547.00;4770659;29;20441;-65
2021/12/20 12:10:54;;;;;;;5.40;2.47;;;;;;;-7.48;69.79;97558.31;4755609;29;20050;-64
2021/12/20 12:13:19;;;;;;;5.78;3.20;;;;;;;-7.53;69.65;97560.19;4755094;29;20489;-65
2021/12/20 12:16:26;;;;;;;5.28;2.50;;;;;;;-7.50;69.58;97568.69;4770088;29;20051;-64
2021/12/20 12:18:52;;;;;;;3.80;2.35;;;;;;;-7.56;70.62;97575.84;4755017;29;20063;-64
2021/12/20 12:21:33;;;;;;;2.58;1.38;;;;;;;-7.55;70.40;97568.00;4770204;29;20047;-65
2021/12/20 12:23:59;;;;;;;2.78;1.58;;;;;;;-7.59;69.80;97573.34;4769986;29;20120;-68
2021/12/20 12:26:33;;;;;;;4.85;2.90;;;;;;;-7.64;70.17;97568.28;4834544;29;20778;-68
2021/12/20 12:28:59;;;;;;;4.40;2.70;;;;;;;-7.64;69.62;97575.22;4844745;29;20045;-66
2021/12/20 12:31:25;;;;;;;4.32;2.65;;;;;;;-7.78;69.78;97592.00;4844963;29;20049;-66
2021/12/20 12:34:06;;;;;;;4.65;2.75;;;;;;;-7.78;69.42;97599.75;4844837;29;20422;-66
2021/12/20 12:36:39;;;;;;;5.80;3.08;;;;;;;-7.89;69.11;97595.81;4844992;29;20059;-66
2021/12/20 12:39:11;;;;;;;6.35;2.75;;;;;;;-7.89;69.46;97612.19;4843531;29;20041;-66
2021/12/20 12:41:47;;;;;;;8.32;3.13;;;;;;;-7.85;70.46;97600.00;4845195;29;20231;-76
2021/12/20 12:44:15;;;;;;;4.72;3.28;;;;;;;-7.91;69.70;97601.06;4844916;29;20053;-71
2021/12/20 12:46:41;;;;;;;5.53;2.85;;;;;;;-7.94;70.31;97610.66;4844646;29;20057;-69
2021/12/20 12:49:21;;;;;;;4.78;3.20;;;;;;;-7.88;70.28;97615.63;4849602;29;20506;-67
2021/12/20 12:51:46;;;;;;;3.50;2.53;;;;;;;-7.91;70.44;97621.75;4832823;29;20059;-67
2021/12/20 12:54:36;;;;;;;5.65;3.10;;;;;;;-7.83;70.06;97624.94;4847273;29;20049;-69
2021/12/20 12:57:09;;;;;;;4.20;2.70;;;;;;;-7.89;71.04;97621.69;4847224;29;20045;-69
2021/12/20 12:59:37;;;;;;;6.95;3.65;;;;;;;-7.92;70.72;97624.38;4863056;29;20048;-69
2021/12/20 13:02:12;;;;;;;5.82;3.30;;;;;;;-7.90;70.02;97633.75;4863912;29;20123;-69
2021/12/20 13:04:57;;;;;;;6.25;3.85;;;;;;;-7.91;71.17;97634.69;4847365;29;20049;-68
2021/12/20 13:07:26;;;;;;;6.30;4.00;;;;;;;-7.99;70.61;97639.22;4846732;29;20044;-68
2021/12/20 13:09:54;;;;;;;4.88;2.80;;;;;;;-7.99;70.46;97634.03;4851454;29;20045;-73
2021/12/20 13:13:07;;;;;;;6.85;3.40;;;;;;;-7.95;70.98;97635.66;4863476;29;20048;-66
2021/12/20 13:17:40;;;;;;;8.95;4.25;;;;;;;-7.98;70.27;97653.00;4864082;29;20108;-68
2021/12/20 13:20:38;;;;;;;7.75;3.78;;;;;;;-7.86;70.40;97652.63;4865885;29;20100;-67
2021/12/20 13:23:10;;;;;;;6.88;3.03;;;;;;;-7.89;70.39;97656.16;4847078;29;20079;-68
2021/12/20 13:25:52;;;;;;;9.45;4.05;;;;;;;-7.94;70.42;97662.38;4862997;29;20464;-68
2021/12/20 13:28:27;;;;;;;3.50;2.80;;;;;;;-7.95;71.12;97666.69;4846158;29;20144;-68
2021/12/20 13:31:02;;;;;;;3.97;2.60;;;;;;;-7.99;70.43;97665.06;4862838;29;20090;-68
2021/12/20 13:33:42;;;;;;;6.13;4.38;;;;;;;-8.01;71.00;97676.38;4862736;29;20048;-67
2021/12/20 13:36:12;;;;;;;9.05;3.90;;;;;;;-8.10;70.83;97680.91;4862931;29;20049;-68
2021/12/20 13:38:42;;;;;;;6.90;3.72;;;;;;;-8.18;71.42;97682.88;4846312;29;20515;-69
2021/12/20 13:41:10;;;;;;;8.10;3.60;;;;;;;-8.24;70.81;97683.03;4827449;29;20057;-68
2021/12/20 13:43:47;;;;;;;6.75;3.90;;;;;;;-8.24;71.81;97697.72;4842920;29;20641;-68
2021/12/20 13:49:07;;;;;;;6.28;2.95;;;;;;;-8.14;70.76;97687.06;4844540;29;20092;-69
2021/12/20 13:51:38;;;;;;;5.03;3.13;;;;;;;-8.14;70.48;97692.25;4844251;29;20045;-67
2021/12/20 13:54:25;;;;;;;7.50;3.47;;;;;;;-8.17;70.63;97702.66;4844080;29;20511;-68
2021/12/20 13:57:16;;;;;;;5.97;3.13;;;;;;;-8.25;70.99;97703.75;4843731;29;20055;-67
2021/12/20 13:59:52;;;;;;;7.32;3.88;;;;;;;-8.23;71.17;97707.97;4843916;29;20056;-68
2021/12/20 14:02:22;;;;;;;5.32;2.78;;;;;;;-8.39;70.12;97711.91;4843974;29;20049;-68
2021/12/20 14:04:50;;;;;;;5.82;2.88;;;;;;;-8.49;70.58;97708.75;4843833;29;20044;-68
2021/12/20 14:07:37;;;;;;;3.70;2.60;;;;;;;-8.46;70.73;97708.63;4843844;29;20049;-67
2021/12/20 14:10:06;;;;;;;5.40;3.03;;;;;;;-8.60;71.07;97722.84;4843383;29;20047;-65
2021/12/20 14:12:41;;;;;;;4.47;2.67;;;;;;;-8.55;71.75;97726.97;4810341;29;20048;-63
2021/12/20 14:15:08;;;;;;;2.83;1.98;;;;;;;-8.61;70.43;97721.97;4826289;29;20416;-64
2021/12/20 14:18:11;;;;;;;4.82;3.10;;;;;;;-8.55;71.02;97734.72;4826684;29;20058;-65
2021/12/20 14:20:45;;;;;;;2.80;1.85;;;;;;;-8.64;71.09;97732.38;4836807;29;20060;-64
2021/12/20 14:23:40;;;;;;;6.65;3.55;;;;;;;-8.63;71.19;97733.22;4826242;29;20053;-65
2021/12/20 14:26:15;;;;;;;4.15;2.53;;;;;;;-8.62;71.27;97735.78;4843729;29;20041;-64
2021/12/20 14:28:53;;;;;;;2.88;2.20;;;;;;;-8.72;71.39;97731.75;4826495;29;20208;-63
2021/12/20 14:31:49;;;;;;;5.10;2.60;;;;;;;-8.76;71.60;97726.69;4810988;29;20479;-63
2021/12/20 14:34:29;;;;;;;4.30;2.67;;;;;;;-8.82;70.85;97732.88;4842996;29;20059;-64
2021/12/20 14:36:54;;;;;;;6.63;2.78;;;;;;;-8.84;71.35;97740.66;4820044;29;20056;-65
2021/12/20 14:39:21;;;;;;;6.85;2.63;;;;;;;-8.92;69.92;97741.72;4842653;29;20092;-65
2021/12/20 14:41:57;;;;;;;2.42;1.92;;;;;;;-8.81;70.67;97732.84;4810971;29;20109;-63
2021/12/20 14:47:09;;;;;;;8.63;3.63;;;;;;;-8.84;70.51;97750.97;4825711;29;20049;-64
2021/12/20 14:49:50;;;;;;;5.50;2.83;;;;;;;-8.82;69.95;97753.53;4842528;29;20036;-64
2021/12/20 14:52:25;;;;;;;4.00;2.20;;;;;;;-8.84;70.39;97750.13;4842542;29;20057;-69
2021/12/20 14:54:52;;;;;;;3.67;2.13;;;;;;;-8.82;70.98;97753.53;4842684;29;20069;-64
2021/12/20 14:57:28;;;;;;;4.40;2.50;;;;;;;-8.80;70.10;97755.16;4826361;29;20560;-64
2021/12/20 14:59:53;;;;;;;4.78;2.40;;;;;;;-8.85;70.37;97754.44;4842344;29;20044;-63
2021/12/20 15:02:25;;;;;;;4.55;2.60;;;;;;;-8.86;70.03;97762.22;4841481;29;20049;-62
2021/12/20 15:04:53;;;;;;;3.92;2.17;;;;;;;-8.84;69.62;97769.03;4842439;29;20139;-64
2021/12/20 15:07:18;;;;;;;4.22;2.33;;;;;;;-8.80;70.23;97772.38;4810538;29;20056;-64
2021/12/20 15:09:43;;;;;;;4.60;2.63;;;;;;;-8.80;70.37;97772.38;4842669;29;20041;-63
2021/12/20 15:12:09;;;;;;;3.20;1.98;;;;;;;-8.74;70.17;97781.72;4842584;29;20110;-65
2021/12/20 15:14:34;;;;;;;5.80;2.80;;;;;;;-8.77;71.06;97780.06;4826037;29;20450;-64
2021/12/20 15:16:59;;;;;;;3.35;1.80;;;;;;;-8.76;70.34;97778.31;4842378;29;20427;-64
2021/12/20 15:19:25;;;;;;;2.70;1.98;;;;;;;-8.82;70.50;97784.50;4842400;29;20049;-65
2021/12/20 15:21:50;;;;;;;4.68;2.47;;;;;;;-8.85;69.85;97789.75;4842233;29;20080;-64
2021/12/20 15:24:15;;;;;;;6.15;3.05;;;;;;;-8.79;69.96;97794.75;4842422;29;20052;-65
2021/12/20 15:26:40;;;;;;;3.88;1.83;;;;;;;-8.73;70.32;97801.50;4842396;29;20041;-65
2021/12/20 15:29:05;;;;;;;5.05;2.53;;;;;;;-8.82;70.22;97810.31;4843912;29;20053;-64
2021/12/20 15:31:33;;;;;;;21.40;6.85;;;;;;;-8.98;70.21;97808.97;4842321;29;20100;-64
2021/12/20 15:33:58;;;;;;;5.88;2.25;;;;;;;-9.00;69.55;97809.00;4841413;29;20045;-64
2021/12/20 15:36:26;;;;;;;3.20;1.63;;;;;;;-9.04;69.41;97815.16;4825494;29;20048;-64
2021/12/20 15:38:53;;;;;;;2.47;1.60;;;;;;;-9.26;69.73;97812.22;4845721;29;20416;-64
2021/12/20 15:41:18;;;;;;;2.80;1.55;;;;;;;-9.37;69.56;97819.31;4850431;29;20072;-65
2021/12/20 15:43:45;;;;;;;2.45;1.75;;;;;;;-9.46;69.43;97821.22;4853880;29;20104;-66
2021/12/20 15:46:09;;;;;;;1.80;1.40;;;;;;;-9.43;69.07;97827.19;4831389;29;20086;-65
2021/12/20 15:48:35;;;;;;;4.25;2.08;;;;;;;-9.50;69.16;97820.47;4845652;29;20065;-65
2021/12/20 15:51:00;;;;;;;3.85;1.58;;;;;;;-9.63;69.74;97829.34;4827807;29;20056;-65
2021/12/20 15:53:27;;;;;;;4.93;2.20;;;;;;;-9.73;69.41;97833.84;4826529;29;20053;-66
2021/12/20 15:55:51;;;;;;;2.88;1.65;;;;;;;-9.75;69.75;97829.59;4827018;29;20612;-65
2021/12/20 15:58:16;;;;;;;2.75;1.85;;;;;;;-9.79;69.77;97839.09;4842035;29;20563;-75
2021/12/20 16:00:41;;;;;;;3.30;1.95;;;;;;;-9.74;69.71;97839.00;4845352;29;20059;-72
2021/12/20 16:03:08;;;;;;;2.13;1.17;;;;;;;-9.67;70.13;97853.47;4846071;29;20056;-70
2021/12/20 16:05:33;;;;;;;1.75;1.30;;;;;;;-9.62;69.77;97841.34;4846493;29;20492;-75
2021/12/20 16:08:03;;;;;;;2.15;1.95;;;;;;;-9.59;70.39;97842.13;4845341;29;20788;-76
2021/12/20 16:10:28;;;;;;;3.38;2.38;;;;;;;-9.65;69.59;97849.13;4846136;29;20049;-72
2021/12/20 16:12:54;;;;;;;5.53;2.25;;;;;;;-9.67;70.26;97851.75;4843838;29;20041;-71
2021/12/20 16:15:21;;;;;;;3.95;2.17;;;;;;;-9.70;70.26;97856.09;4844737;29;20060;-71
2021/12/20 16:17:55;;;;;;;3.70;2.38;;;;;;;-9.63;70.22;97855.97;4843256;29;20161;-71
2021/12/20 16:20:22;;;;;;;4.80;2.88;;;;;;;-9.64;69.68;97853.41;4845422;29;20105;-72
2021/12/20 16:22:47;;;;;;;2.10;1.50;;;;;;;-9.62;70.09;97867.13;4827902;29;20487;-72
2021/12/20 16:25:14;;;;;;;4.20;2.33;;;;;;;-9.59;69.78;97852.44;4844805;29;20044;-72
2021/12/20 16:27:39;;;;;;;3.50;1.73;;;;;;;-9.56;70.21;97857.53;4844612;29;20104;-71
2021/12/20 16:30:10;;;;;;;8.25;3.03;;;;;;;-9.58;69.39;97855.84;4845477;29;20041;-77
2021/12/20 16:32:35;;;;;;;4.88;2.60;;;;;;;-9.71;67.39;97865.59;4846003;29;20049;-75
2021/12/20 16:35:01;;;;;;;5.38;2.92;;;;;;;-9.78;67.16;97858.00;4829770;29;20048;-77
2021/12/20 16:37:28;;;;;;;4.25;2.90;;;;;;;-9.99;65.40;97862.69;4845631;29;20044;-69
2021/12/20 16:39:52;;;;;;;3.47;2.05;;;;;;;-9.93;65.47;97862.56;4845599;29;20101;-71
2021/12/20 16:42:18;;;;;;;4.60;1.75;;;;;;;-9.86;66.21;97868.47;4828937;29;20457;-74
2021/12/20 16:44:47;;;;;;;4.65;2.75;;;;;;;-9.83;67.40;97873.56;4828358;29;20049;-73
2021/12/20 16:47:26;;;;;;;4.75;2.90;;;;;;;-10.01;65.74;97867.00;4845201;29;20045;-74
2021/12/20 16:49:54;;;;;;;3.63;2.00;;;;;;;-9.99;65.31;97877.28;4838687;29;20055;-74
2021/12/20 16:52:19;;;;;;;3.83;2.30;;;;;;;-10.01;65.98;97874.75;4828920;29;20060;-72
2021/12/20 16:54:47;;;;;;;3.03;2.03;;;;;;;-9.93;67.72;97877.19;4844992;29;20045;-72
2021/12/20 16:57:16;;;;;;;3.05;1.58;;;;;;;-9.95;67.26;97884.09;4845459;29;20045;-73
2021/12/20 16:59:41;;;;;;;1.65;1.45;;;;;;;-9.93;68.26;97893.47;4828434;29;20563;-74
2021/12/20 17:02:08;;;;;;;1.10;0.93;;;;;;;-9.86;68.93;97883.06;4844866;29;20063;-73
2021/12/20 17:07:01;;;;;;;5.25;1.92;;;;;;;-9.77;69.50;97888.91;4844544;29;20395;-73
2021/12/20 17:09:26;;;;;;;2.17;1.98;;;;;;;-9.78;69.66;97894.94;4828154;29;20045;-74
2021/12/20 17:11:51;;;;;;;3.38;2.28;;;;;;;-9.79;69.44;97907.84;4842572;29;20052;-72
2021/12/20 17:14:19;;;;;;;2.45;1.83;;;;;;;-9.77;69.25;97924.16;4844495;29;20045;-73
2021/12/20 17:16:46;;;;;;;1.67;1.45;;;;;;;-9.68;69.16;97923.97;4844184;29;20109;-72
2021/12/20 17:19:12;;;;;;;3.20;1.90;;;;;;;-9.61;69.18;97916.13;4843966;29;20060;-72
2021/12/20 17:21:37;;;;;;;2.20;1.20;;;;;;;-9.64;68.98;97920.47;4844232;29;20464;-73
2021/12/20 17:24:02;;;;;;;1.85;1.42;;;;;;;-9.80;68.72;97919.88;4828408;29;20436;-72
2021/12/20 17:26:28;;;;;;;1.77;1.15;;;;;;;-9.86;68.74;97927.75;4845857;29;20481;-72
2021/12/20 17:28:52;;;;;;;2.58;1.55;;;;;;;-9.98;69.01;97927.97;4845713;29;20056;-72
2021/12/20 17:31:20;;;;;;;2.15;1.20;;;;;;;-10.11;68.95;97926.47;4862256;29;20048;-73
2021/12/20 17:33:46;;;;;;;3.78;2.08;;;;;;;-10.12;69.23;97933.34;4861234;29;20060;-72
2021/12/20 17:36:10;;;;;;;2.85;1.80;;;;;;;-10.12;69.68;97935.94;4862454;29;20058;-72
2021/12/20 17:38:36;;;;;;;2.13;1.83;;;;;;;-10.13;69.52;97944.53;4862493;29;20824;-73
2021/12/20 17:41:02;;;;;;;2.38;1.33;;;;;;;-10.20;69.47;97939.53;4862529;29;20092;-71
2021/12/20 17:43:28;;;;;;;2.15;1.25;;;;;;;-10.15;70.13;97945.41;4845343;29;20052;-74
2021/12/20 17:45:53;;;;;;;2.50;1.50;;;;;;;-10.18;69.40;97945.53;4845939;29;20516;-70
2021/12/20 17:48:18;;;;;;;2.60;2.22;;;;;;;-10.21;69.54;97941.28;4829936;29;20526;-64
2021/12/20 17:50:42;;;;;;;5.25;2.40;;;;;;;-10.27;69.69;97943.97;4862218;29;20036;-65
2021/12/20 17:53:07;;;;;;;2.55;1.95;;;;;;;-10.28;69.91;97952.56;4845231;29;20140;-65
2021/12/20 17:55:34;;;;;;;2.25;1.83;;;;;;;-10.26;69.38;97950.78;4862216;29;20041;-70
2021/12/20 17:57:59;;;;;;;3.10;1.98;;;;;;;-10.25;69.74;97954.22;4861753;29;20527;-64
2021/12/20 18:00:27;;;;;;;3.35;2.17;;;;;;;-10.24;69.08;97955.91;4862966;29;20045;-80
2021/12/20 18:02:53;;;;;;;2.47;1.73;;;;;;;-10.28;70.02;97957.72;4846010;29;20059;-74
2021/12/20 18:05:19;;;;;;;2.83;2.03;;;;;;;-10.30;69.96;97962.03;4846159;29;20049;-72
2021/12/20 18:07:47;;;;;;;4.47;2.38;;;;;;;-10.33;69.24;97962.94;4862162;29;20056;-71
2021/12/20 18:10:16;;;;;;;4.75;2.10;;;;;;;-10.36;69.45;97965.53;4845423;29;20551;-74
2021/12/20 18:12:44;;;;;;;2.17;1.27;;;;;;;-10.32;70.17;97963.78;4862208;29;20059;-70
2021/12/20 18:15:11;;;;;;;2.15;1.35;;;;;;;-10.33;70.07;97969.81;4862020;29;20072;-71
2021/12/20 18:17:37;;;;;;;4.43;2.08;;;;;;;-10.35;70.17;97980.13;4844787;29;20056;-71
2021/12/20 18:20:06;;;;;;;3.33;1.90;;;;;;;-10.31;69.79;97986.09;4845309;29;20060;-75
2021/12/20 18:22:32;;;;;;;6.50;2.00;;;;;;;-10.32;69.57;97984.38;4845566;29;20071;-74
2021/12/20 18:24:58;;;;;;;2.17;1.55;;;;;;;-10.31;70.19;97968.91;4862736;29;20052;-74
2021/12/20 18:27:23;;;;;;;2.63;1.73;;;;;;;-10.28;69.67;97978.31;4845513;29;20415;-75
2021/12/20 18:29:49;;;;;;;2.85;1.83;;;;;;;-10.33;70.00;97990.41;4845305;29;20046;-73
2021/12/20 18:32:14;;;;;;;5.25;2.25;;;;;;;-10.38;70.05;97972.44;4845113;29;20048;-73
2021/12/20 18:34:39;;;;;;;3.22;1.65;;;;;;;-10.36;69.76;97986.16;4860443;29;20040;-76
2021/12/20 18:37:04;;;;;;;3.08;2.13;;;;;;;-10.35;69.71;97981.84;4862748;29;20056;-75
2021/12/20 18:39:28;;;;;;;1.90;1.48;;;;;;;-10.39;69.43;97985.38;4859980;29;20040;-76
2021/12/20 18:41:55;;;;;;;2.53;1.55;;;;;;;-10.37;69.94;97993.88;4832613;29;20048;-73
2021/12/20 18:44:20;;;;;;;4.65;2.47;;;;;;;-10.36;69.73;97995.59;4822951;29;20037;-74
2021/12/20 18:46:51;;;;;;;5.43;2.35;;;;;;;-10.39;69.98;97995.66;4844906;29;20079;-71
2021/12/20 18:49:16;;;;;;;3.15;2.40;;;;;;;-10.41;69.88;97995.69;4831735;29;20052;-75